Home > Products > Valid Products > TAF

000
FTUS44 KOHX 272300 RRA
TAFBNA
TAF
KBNA 272342Z 2800/2824 34009KT P6SM BKN015 OVC030
     FM280700 02004KT P6SM SKC
     FM281500 09006KT P6SM SKC=



000
FTUS44 KOHX 272300 RRA
TAFCSV
TAF
KCSV 272342Z 2800/2824 34007KT P6SM BKN015 OVC020
     FM280700 01003KT P6SM SKC
     FM281500 06005KT P6SM SKC=



000
FTUS44 KOHX 272300 RRA
TAFCKV
TAF
KCKV 272342Z 2800/2824 33008KT P6SM BKN015 OVC030
     FM280600 03004KT P6SM SKC
     FM281500 11006KT P6SM SKC=



000
FTUS44 KOHX 271700
TAFCSV
TAF
KCSV 271726Z 2718/2818 34007KT P6SM OVC010
     FM272100 33006KT P6SM OVC019
     FM280400 34004KT P6SM BKN030
     FM280800 01003KT P6SM SCT050=



000
FTUS44 KOHX 271700
TAFCKV
TAF
KCKV 271726Z 2718/2818 33009KT P6SM OVC019
     FM280200 36004KT P6SM SCT030 BKN050
     FM280600 05004KT P6SM SCT050=



000
FTUS44 KOHX 271700
TAFBNA
TAF
KBNA 271726Z 2718/2818 34007KT P6SM OVC025
     FM280200 01004KT P6SM SCT030 BKN050
     FM280800 02004KT P6SM FEW150=



000
FTUS44 KOHX 271600 AAB
TAFCKV
TAF AMD
KCKV 271630Z 2717/2812 33009KT P6SM OVC025
     FM280200 36004KT P6SM SCT030 BKN050
     FM280600 05004KT P6SM SCT050=



000
FTUS44 KOHX 271600 AAA
TAFBNA
TAF AMD
KBNA 271627Z 2716/2812 32007KT P6SM OVC025
     FM280200 01004KT P6SM SCT030 BKN050=



000
FTUS44 KOHX 271600 AAB
TAFCSV
TAF AMD
KCSV 271624Z 2716/2812 34007KT 6SM BR OVC009
     FM272000 33006KT P6SM OVC015
     FM280800 01003KT P6SM SKC=



000
FTUS44 KOHX 271300 AAA
TAFCKV
TAF AMD
KCKV 271326Z 2713/2812 32008KT P6SM SCT029 BKN060
      TEMPO 2713/2716 BKN029 BKN060
     FM280200 36004KT P6SM SKC=



000
FTUS44 KOHX 271300 AAA
TAFCSV
TAF AMD
KCSV 271325Z 2713/2812 31005KT 4SM BR OVC015
      TEMPO 2713/2716 2SM -SN BR OVC003
     FM271700 34007KT P6SM OVC035
     FM280800 01003KT P6SM SKC=



000
FTUS44 KOHX 271100
TAFBNA
TAF
KBNA 271121Z 2712/2812 33004KT P6SM OVC070
     FM280200 01004KT P6SM SKC=



000
FTUS44 KOHX 271100
TAFCKV
TAF
KCKV 271121Z 2712/2812 30005KT P6SM SCT030 BKN070
     FM280200 36004KT P6SM SKC=



000
FTUS44 KOHX 271100
TAFCSV
TAF
KCSV 271121Z 2712/2812 27005KT P6SM OVC015
      TEMPO 2712/2716 2SM -SN BR OVC007
     FM271700 34007KT P6SM OVC035
     FM280800 01003KT P6SM SKC=



000
FTUS44 KOHX 270900 AAA
TAFCSV
TAF AMD
KCSV 270903Z 2709/2806 00000KT P6SM SCT004 OVC014
      TEMPO 2709/2713 2SM -SN BR OVC004
     FM271600 34008KT P6SM OVC015
     FM272000 33009KT P6SM OVC025
     FM280400 34005KT P6SM OVC050=



000
FTUS44 KOHX 270900 AAA
TAFBNA
TAF AMD
KBNA 270901Z 2709/2806 00000KT P6SM BKN040 OVC060
     FM271400 34006KT P6SM OVC040
     FM280400 34005KT P6SM SCT040=



000
FTUS44 KOHX 270900 AAA
TAFCKV
TAF AMD
KCKV 270901Z 2709/2806 00000KT P6SM OVC060
     FM271300 33006KT P6SM OVC060
     FM280300 35003KT P6SM SCT060=



000
FTUS44 KOHX 270500
TAFCSV
TAF
KCSV 270536Z 2706/2806 28004KT P6SM SCT007 BKN019 OVC024
      TEMPO 2706/2709 BKN007 OVC019
     FM270900 19003KT 4SM -SHSN OVC004
     FM271600 34008KT P6SM OVC015
     FM272000 33009KT P6SM OVC025
     FM280400 34005KT P6SM OVC050=



000
FTUS44 KOHX 270500
TAFCKV
TAF
KCKV 270536Z 2706/2806 12004KT P6SM OVC040
      TEMPO 2706/2708 BKN015
     FM270800 27003KT P6SM -SHSN OVC015
     FM271300 34006KT P6SM OVC015
     FM271900 34007KT P6SM OVC025
     FM280300 35003KT P6SM SCT025=



000
FTUS44 KOHX 270500
TAFBNA
TAF
KBNA 270536Z 2706/2806 14004KT P6SM OVC050
      TEMPO 2706/2709 BKN015
     FM270900 19003KT P6SM -SHSN OVC015
     FM271400 33006KT P6SM OVC015
     FM271900 34009KT P6SM OVC025
     FM280400 34005KT P6SM SCT025=



000
FTUS44 KOHX 270500 AAA
TAFCKV
TAF AMD
KCKV 270505Z 2705/2724 12004KT P6SM -SHSN OVC040
     FM270700 VRB03KT P6SM -SHSN OVC015
     FM270900 VRB03KT 6SM BR OVC010
     FM271400 35006KT P6SM OVC020
     FM271700 34007KT P6SM SCT020=



000
FTUS44 KOHX 270400 AAH
TAFCSV
TAF AMD
KCSV 270422Z 2704/2724 26003KT P6SM SCT008 OVC030
      TEMPO 2704/2706 4SM -SHSN BR BKN012
     FM270600 VRB03KT 4SM -SHSN BR OVC005
     FM270800 VRB02KT 3SM -SHSN BR OVC003
     FM271000 00000KT 2SM -SHSN BR OVC002
     FM271500 35007KT 5SM -SHSN BR OVC007
     FM271900 34009KT P6SM OVC015=



000
FTUS44 KOHX 270300 AAG
TAFCSV
TAF AMD
KCSV 270350Z 2704/2724 28005KT P6SM BKN008 BKN019 OVC030
      TEMPO 2704/2706 4SM -SHSN BR BKN012
     FM270600 VRB03KT 4SM -SHSN BR OVC005
     FM270800 VRB02KT 3SM -SHSN BR OVC003
     FM271000 00000KT 2SM -SHSN BR OVC002
     FM271500 35007KT 5SM -SHSN BR OVC007
     FM271900 34009KT P6SM OVC015=



000
FTUS44 KOHX 270300 AAG
TAFCSV
TAF AMD
KCSV 270350Z 2704/2724 28005KT P6SM BKN008 BKN019 OVC030
      TEMPO 2704/2706 4SM -SHSN BR BKN012
     FM270600 VRB03KT 4SM -SHSN BR OVC005
     FM270800 VRB02KT 3SM -SHSN BR OVC003
     FM271000 00000KT 2SM -SHSN BR OVC002
     FM271500 35007KT 5SM -SHSN BR OVC007
     FM271900 34009KT P6SM OVC015=



000
FTUS44 KOHX 270300 AAF
TAFCSV
TAF AMD
KCSV 270319Z 2703/2724 28005KT 6SM -SHSN BR SCT012 OVC040
      TEMPO 2703/2705 4SM -SHSN BR BKN012
     FM270500 VRB03KT 4SM -SHSN BR OVC005
     FM270700 VRB02KT 3SM -SHSN BR OVC003
     FM271000 00000KT 2SM -SHSN BR OVC002
     FM271500 35007KT 5SM -SHSN BR OVC007
     FM271900 34009KT P6SM OVC015=



000
FTUS44 KOHX 270300 AAF
TAFCSV
TAF AMD
KCSV 270319Z 2703/2724 28005KT 6SM -SHSN BR SCT012 OVC040
      TEMPO 2703/2705 4SM -SHSN BR BKN012
     FM270500 VRB03KT 4SM -SHSN BR OVC005
     FM270700 VRB02KT 3SM -SHSN BR OVC003
     FM271000 00000KT 2SM -SHSN BR OVC002
     FM271500 35007KT 5SM -SHSN BR OVC007
     FM271900 34009KT P6SM OVC015=



000
FTUS44 KOHX 270300 AAE
TAFCSV
TAF AMD
KCSV 270301Z 2703/2724 29003KT 5SM -SHSN BR SCT012 OVC030
      TEMPO 2703/2705 4SM -SHSN BR BKN012
     FM270500 VRB03KT 4SM -SHSN BR OVC005
     FM270700 VRB02KT 3SM -SHSN BR OVC003
     FM271000 00000KT 2SM -SHSN BR OVC002
     FM271500 35007KT 5SM -SHSN BR OVC007
     FM271900 34009KT P6SM OVC015=



000
FTUS44 KOHX 270200 AAD
TAFCSV
TAF AMD
KCSV 270221Z 2702/2724 29003KT P6SM -SHSN BKN008 OVC013
      TEMPO 2702/2704 2SM -SHSN BR
     FM270400 VRB03KT 5SM -SHSN BR OVC005
     FM270500 VRB02KT 3SM -SHSN BR OVC003
     FM271000 00000KT 2SM -SHSN BR OVC002
     FM271500 35007KT 5SM -SHSN BR OVC007
     FM271900 34009KT P6SM OVC015=



000
FTUS44 KOHX 270100 AAC
TAFCSV
TAF AMD
KCSV 270134Z 2702/2724 28004KT P6SM -SHSN OVC010
     FM270300 VRB03KT 5SM -SHSN BR OVC005
     FM270500 VRB02KT 3SM -SHSN BR OVC003
     FM271000 00000KT 2SM -SHSN BR OVC002
     FM271500 35007KT 5SM -SHSN BR OVC007
     FM271900 34009KT P6SM OVC015=



000
FTUS44 KOHX 270100 AAB
TAFCSV
TAF AMD
KCSV 270119Z 2701/2724 28004KT 5SM -SHSN BR BKN008 OVC013
     FM270200 VRB03KT 5SM -SHSN BR OVC005
     FM270500 VRB02KT 3SM -SHSN BR OVC003
     FM271000 00000KT 2SM -SHSN BR OVC002
     FM271500 35007KT 5SM -SHSN BR OVC007
     FM271900 34009KT P6SM OVC015=



000
FTUS44 KOHX 270000 AAA
TAFCSV
TAF AMD
KCSV 270010Z 2700/2724 30005KT 6SM -SHSN BR OVC004
     FM270200 VRB03KT 5SM -SHSN BR OVC005
     FM270500 VRB02KT 3SM -SHSN BR OVC003
     FM271000 00000KT 2SM -SHSN BR OVC002
     FM271500 35007KT 5SM -SHSN BR OVC007
     FM271900 34009KT P6SM OVC015=



000
FTUS44 KOHX 262300 RRA
TAFCKV
TAF
KCKV 262340Z 2700/2724 25007KT P6SM -SHSN SCT030 BKN050 OVC080
      TEMPO 2700/2703 5SM -SHSN OVC030
     FM270500 VRB03KT P6SM -SHSN OVC015
     FM270900 VRB03KT 6SM BR OVC010
     FM271400 35006KT P6SM OVC020
     FM271700 34007KT P6SM SCT020=



000
FTUS44 KOHX 262300 RRA
TAFCSV
TAF
KCSV 262340Z 2700/2724 28007G14KT P6SM -SHSN OVC006
     FM270200 VRB03KT 5SM -SHSN BR OVC005
     FM270500 VRB02KT 3SM -SHSN BR OVC003
     FM271000 00000KT 2SM -SHSN BR OVC002
     FM271500 35007KT 5SM -SHSN BR OVC007
     FM271900 34009KT P6SM OVC015=



000
FTUS44 KOHX 262300 RRA
TAFBNA
TAF
KBNA 262340Z 2700/2724 33005KT P6SM -SHSN SCT025 BKN060 OVC080
      TEMPO 2700/2704 5SM -SHSN OVC025
     FM270600 VRB03KT P6SM -SHSN OVC015
     FM271000 VRB03KT 6SM BR OVC010
     FM271500 35007KT P6SM OVC020
     FM271800 35009KT P6SM SCT020=



000
FTUS44 KOHX 262200 AAA
TAFCKV
TAF AMD
KCKV 262230Z 2623/2718 28007KT P6SM SCT030 SCT060 OVC080
     FM270200 VRB03KT P6SM OVC025
     FM271200 34005KT 6SM BR OVC010=



000
FTUS44 KOHX 262200 AAA
TAFCSV
TAF AMD
KCSV 262229Z 2622/2718 28007G14KT P6SM -SHRA OVC007
     FM270200 VRB03KT 5SM -SN OVC006
     FM270500 VRB02KT 3SM -SN OVC004=



000
FTUS44 KOHX 261700
TAFCSV
TAF
KCSV 261732Z 2618/2718 31010G17KT 5SM BR OVC005
      TEMPO 2618/2620 2SM BR OVC003
     FM262000 31009G14KT 5SM BR OVC009
     FM270200 VRB03KT 5SM -SN OVC009
     FM270500 VRB02KT 3SM -SN OVC004=



000
FTUS44 KOHX 261700
TAFCKV
TAF
KCKV 261732Z 2618/2718 32010KT P6SM OVC015
     FM262100 29007KT P6SM OVC025
     FM270200 VRB03KT P6SM OVC025
     FM271200 34005KT 6SM BR OVC010=



000
FTUS44 KOHX 261700
TAFBNA
TAF
KBNA 261732Z 2618/2718 32008KT P6SM OVC020
     FM262100 30007KT P6SM OVC040
     FM270300 VRB03KT P6SM OVC020
     FM271200 34003KT 6SM BR OVC010=



000
FTUS44 KOHX 261600 AAD
TAFCSV
TAF AMD
KCSV 261627Z 2616/2712 31010G17KT 5SM BR OVC005
      TEMPO 2616/2618 2SM BR OVC002
     FM261800 32008KT 6SM BR OVC009
     FM270300 VRB03KT 5SM -SN OVC009
     FM270500 VRB02KT 3SM -SN OVC004=



000
FTUS44 KOHX 261500 AAC
TAFCSV
TAF AMD
KCSV 261500Z 2615/2712 30013G19KT 5SM BR OVC006
     FM261600 32008G16KT P6SM OVC009
     FM261800 32008KT P6SM OVC025
     FM270300 VRB03KT 5SM -SN OVC009
     FM270500 VRB02KT 3SM -SN OVC004=



000
FTUS44 KOHX 261300 AAB
TAFCSV
TAF AMD
KCSV 261342Z 2614/2712 30013G23KT 1/4SM -FZDZ FZFG OVC002
      TEMPO 2614/2615 2SM BR OVC007
     FM261600 32008G16KT P6SM OVC015
     FM262000 30007KT P6SM OVC025
     FM270200 VRB03KT P6SM -SN SCT007 OVC011
      TEMPO 2708/2712 4SM -SN BR BKN007 OVC011=



000
FTUS44 KOHX 261300 AAA
TAFCSV
TAF AMD
KCSV 261321Z 2613/2712 30010G20KT 2SM BR OVC002
      TEMPO 2613/2615 4SM BR OVC007
     FM261600 32008G16KT P6SM OVC015
     FM262000 30007KT P6SM OVC025
     FM270200 VRB03KT P6SM -SN SCT007 OVC011
      TEMPO 2708/2712 4SM -SN BR BKN007 OVC011=



000
FTUS44 KOHX 261300 AAA
TAFBNA
TAF AMD
KBNA 261319Z 2613/2712 33010G20KT P6SM OVC015
     FM261600 31010G20KT P6SM OVC025
     FM262000 29007KT P6SM OVC050
     FM270200 VRB03KT P6SM OVC025=



000
FTUS44 KOHX 261100
TAFCSV
TAF
KCSV 261124Z 2612/2712 30010G20KT 6SM -FZDZSNPL OVC006
     FM261800 32008G16KT P6SM OVC015
     FM262000 30007KT P6SM OVC025
     FM270200 VRB03KT P6SM -SN SCT007 OVC011
      TEMPO 2708/2712 4SM -SN BR BKN007 OVC011=



000
FTUS44 KOHX 261100
TAFBNA
TAF
KBNA 261124Z 2612/2712 33015G25KT P6SM OVC008
     FM261600 31010G20KT P6SM OVC015
     FM262000 29007KT P6SM OVC050
     FM270200 VRB03KT P6SM OVC025=



000
FTUS44 KOHX 261100
TAFCKV
TAF
KCKV 261124Z 2612/2712 32015G25KT P6SM OVC012
     FM261600 32010KT P6SM OVC025
     FM262000 29007KT P6SM OVC050
     FM270200 VRB03KT P6SM OVC025=



000
FTUS44 KOHX 260500
TAFCSV
TAF
KCSV 260532Z 2606/2706 27008KT 4SM -SHRA BR BKN008 OVC014
      TEMPO 2611/2614 -RASN
     FM261400 32011G22KT 5SM -SN BR OVC005
     FM262000 31012G24KT P6SM OVC015=



000
FTUS44 KOHX 260500
TAFBNA
TAF
KBNA 260532Z 2606/2706 30010KT P6SM -SHRA BKN014 OVC020
      TEMPO 2609/2612 -RASN BKN008 OVC015
     FM261200 32012G24KT P6SM -SN OVC008
     FM261800 31010G20KT P6SM BKN025 OVC050=



000
FTUS44 KOHX 260500
TAFCKV
TAF
KCKV 260532Z 2606/2706 32013G23KT P6SM BKN008 OVC020
      TEMPO 2608/2611 -RASN
     FM261100 33014G24KT P6SM -SN OVC008
     FM261300 32010G20KT P6SM BKN025 OVC050=



000
FTUS44 KOHX 252300
TAFCKV
TAF
KCKV 252335Z 2600/2624 27012KT 6SM -SHRA BR SCT010 BKN018
     FM260300 32013KT 4SM -SHRA BR BKN008 OVC015
      TEMPO 2607/2610 -RASN
     FM261000 33014KT P6SM OVC009 PROB30 2610/2613 -SN
     FM261300 32010KT P6SM OVC025=



000
FTUS44 KOHX 252300
TAFCSV
TAF
KCSV 252335Z 2600/2624 19007KT P6SM BKN040 OVC100
      TEMPO 2600/2602 -SHRA BKN030
     FM260400 27008KT 4SM -SHRA BR SCT005 OVC012
      TEMPO 2609/2612 -RASN
     FM261200 32011KT 5SM -SN BR OVC006
     FM261600 31011KT P6SM BKN015=



000
FTUS44 KOHX 252300
TAFBNA
TAF
KBNA 252335Z 2600/2624 23010KT P6SM BKN040 OVC060
      TEMPO 2602/2605 -SHRA BKN035 OVC040
     FM260500 32012KT 4SM -SHRA BR OVC007
      TEMPO 2608/2611 -RASN
     FM261100 32012KT P6SM OVC008 PROB30 2611/2614 -SN
     FM261400 31010KT P6SM OVC025=



000
FTUS44 KOHX 252000 AAB
TAFCKV
TAF AMD
KCKV 252058Z 2521/2618 23012G18KT P6SM BKN025 BKN100
      TEMPO 2521/2524 -SHRA OVC015
     FM260000 26009KT 4SM -SHRA BR BKN015
     FM260300 32013KT 4SM -SHRA BR OVC008
      TEMPO 2607/2610 -RASN
     FM261000 33014KT P6SM OVC009 PROB30 2610/2613 -SN
     FM261300 32010KT P6SM OVC025=



000
FTUS44 KOHX 252000 AAA
TAFCKV
TAF AMD
KCKV 252031Z 2521/2618 22013G20KT P6SM BKN030 BKN100
      TEMPO 2521/2524 -SHRA OVC025
     FM260000 26009KT 4SM -SHRA BR BKN015
     FM260300 32013KT 4SM -SHRA BR OVC008
      TEMPO 2607/2610 -RASN
     FM261000 33014KT P6SM OVC009 PROB30 2610/2613 -SN
     FM261300 32010KT P6SM OVC025=



000
FTUS44 KOHX 251700
TAFBNA
TAF
KBNA 251729Z 2518/2618 19012G18KT P6SM SCT100 BKN160
     FM252000 23011KT P6SM SCT040 BKN100
      TEMPO 2520/2523 -SHRA BKN040
     FM252300 26009KT 4SM -SHRA BR BKN015
     FM260500 32011KT 4SM -SHRA BR OVC007
      TEMPO 2608/2611 -RASN
     FM261100 32012KT P6SM OVC008 PROB30 2611/2614 -SN
     FM261400 31010KT P6SM OVC025=



000
FTUS44 KOHX 251700
TAFCSV
TAF
KCSV 251729Z 2518/2618 19008G16KT P6SM SCT100 SCT200
     FM252200 22008G14KT P6SM SCT040 BKN100
      TEMPO 2522/2602 -SHRA BKN030
     FM260200 27008KT 4SM -SHRA BR SCT005 OVC012
      TEMPO 2609/2612 -RASN
     FM261200 32011KT 5SM -SN BR OVC006
     FM261600 31011KT P6SM BKN015=



000
FTUS44 KOHX 251700
TAFCKV
TAF
KCKV 251729Z 2518/2618 20011G17KT P6SM SCT050 BKN100
      TEMPO 2518/2521 -SHRA BKN040
     FM252100 26009KT 4SM -SHRA BR BKN015
     FM260300 32013KT 4SM -SHRA BR OVC008
      TEMPO 2607/2610 -RASN
     FM261000 33014KT P6SM OVC009 PROB30 2610/2613 -SN
     FM261300 32010KT P6SM OVC025=



000
FTUS44 KOHX 251700 AAA
TAFCKV
TAF AMD
KCKV 251715Z 2517/2612 20008G17KT P6SM SCT050 OVC080
     FM251830 22010G18KT 4SM -RA BR OVC015
     FM252000 24008G18KT 2SM -RA BR OVC007
     FM260100 30007KT 4SM -RA BR OVC007
     FM260800 33011G19KT P6SM -SHSN OVC007=



000
FTUS44 KOHX 251100
TAFCSV
TAF
KCSV 251140Z 2512/2612 19008G16KT P6SM BKN150
     FM252200 21008G16KT 4SM -RA BR OVC025
     FM260200 23006KT 2SM -RA BR OVC005
     FM261000 29008KT 4SM -SHSN OVC005=



000
FTUS44 KOHX 251100
TAFCKV
TAF
KCKV 251140Z 2512/2612 20008G17KT P6SM SCT050 OVC080
     FM251700 22010G18KT 4SM -RA BR OVC015
     FM252000 24008G18KT 2SM -RA BR OVC007
     FM260100 30007KT 4SM -RA BR OVC007
     FM260800 33011G19KT P6SM -SHSN OVC007=



000
FTUS44 KOHX 251100
TAFBNA
TAF
KBNA 251140Z 2512/2612 17008G17KT P6SM BKN080 OVC150
     FM251900 21010G18KT 4SM -RA BR OVC025
     FM252200 24010G18KT 2SM -RA BR OVC007
     FM260200 30007KT 4SM -RA BR OVC007
     FM260900 33011G19KT P6SM -SHRA OVC007=



000
FTUS44 KOHX 250500
TAFBNA
TAF
KBNA 250537Z 2506/2606 19006KT P6SM SKC
     FM251400 17008G17KT P6SM SCT100 BKN250
     FM251900 20010G18KT 4SM -RA BR OVC025
     FM252100 22010G18KT 2SM -RA BR OVC007=



000
FTUS44 KOHX 250500
TAFCKV
TAF
KCKV 250537Z 2506/2606 22005KT P6SM SKC
     FM250900 18005KT P6SM BKN250
     FM251400 20009G18KT P6SM OVC100
     FM251800 20009G18KT 4SM -RA BR OVC015
     FM252000 21008G18KT 2SM -RA BR OVC007
     FM260200 27010G18KT 3SM -RA BR OVC007=



000
FTUS44 KOHX 250500
TAFCSV
TAF
KCSV 250537Z 2506/2606 22005KT P6SM SKC
     FM251000 20003KT 4SM BR BKN250
     FM251500 19008G16KT P6SM OVC250
     FM252200 20008G16KT 4SM -RA BR OVC025
     FM260000 21006KT 1 1/2SM -RA BR OVC003=



    US Dept of Commerce
    National Oceanic and Atmospheric Administration
    National Weather Service
    1325 East West Highway
    Silver Spring, MD 20910
    Page Author: NWS Internet Services Team
Disclaimer
Information Quality
Credits
Glossary
Privacy Policy
Freedom of Information Act (FOIA)
About Us
Career Opportunities